createdAt,value
2022-12-11T00:01:27.392Z,83.03
2022-12-11T00:03:53.958Z,82.98
2022-12-11T00:06:22.865Z,82.76
2022-12-11T00:08:54.435Z,82.60
2022-12-11T00:11:22.615Z,82.76
2022-12-11T00:13:49.053Z,82.60
2022-12-11T00:16:15.825Z,82.72
2022-12-11T00:18:42.531Z,82.65
2022-12-11T00:21:13.450Z,82.45
2022-12-11T00:23:40.665Z,82.68
2022-12-11T00:26:09.378Z,82.30
2022-12-11T00:28:36.501Z,82.16
2022-12-11T00:31:08.188Z,82.40
2022-12-11T00:33:34.633Z,82.57
2022-12-11T00:36:01.050Z,82.69
2022-12-11T00:38:27.726Z,82.34
2022-12-11T00:40:58.707Z,82.74
2022-12-11T00:43:25.122Z,82.68
2022-12-11T00:45:51.692Z,82.53
2022-12-11T00:48:18.134Z,82.59
2022-12-11T00:50:44.538Z,82.80
2022-12-11T00:53:10.891Z,82.53
2022-12-11T00:55:41.566Z,82.71
2022-12-11T00:58:08.574Z,82.43
2022-12-11T01:00:35.968Z,82.31
2022-12-11T01:03:02.601Z,82.58
2022-12-11T01:05:29.306Z,82.48
2022-12-11T01:07:55.978Z,82.22
2022-12-11T01:10:25.624Z,82.32
2022-12-11T01:13:04.220Z,82.27
2022-12-11T01:15:37.442Z,82.19
2022-12-11T01:18:06.451Z,82.33
2022-12-11T01:20:32.856Z,82.43
2022-12-11T01:23:00.986Z,82.48
2022-12-11T01:25:28.732Z,82.54
2022-12-11T01:27:56.071Z,82.48
2022-12-11T01:30:24.621Z,81.98
2022-12-11T01:32:51.818Z,82.55
2022-12-11T01:35:18.708Z,82.72
2022-12-11T01:37:45.260Z,82.42
2022-12-11T01:40:15.228Z,82.51
2022-12-11T01:42:42.192Z,82.82
2022-12-11T01:45:29.724Z,82.69
2022-12-11T01:48:19.670Z,82.39
2022-12-11T01:50:57.946Z,82.32
2022-12-11T01:53:33.304Z,82.41
2022-12-11T01:55:59.856Z,82.38
2022-12-11T01:58:33.716Z,82.29
2022-12-11T02:01:02.364Z,82.29
2022-12-11T02:03:28.852Z,82.48
2022-12-11T02:05:59.674Z,82.30
2022-12-11T02:08:26.467Z,82.29
2022-12-11T02:11:15.939Z,81.84
2022-12-11T02:14:02.078Z,82.01
2022-12-11T02:16:40.953Z,81.80
2022-12-11T02:19:21.446Z,81.89
2022-12-11T02:21:53.020Z,81.90
2022-12-11T02:24:41.865Z,82.02
2022-12-11T02:27:20.654Z,82.40
2022-12-11T02:30:04.356Z,81.81
2022-12-11T02:32:39.676Z,81.97
2022-12-11T02:35:18.845Z,82.13
2022-12-11T02:37:48.480Z,81.72
2022-12-11T02:40:22.249Z,81.95
2022-12-11T02:42:50.843Z,81.87
2022-12-11T02:45:19.197Z,81.64
2022-12-11T02:47:49.210Z,81.87
2022-12-11T02:50:19.245Z,81.90
2022-12-11T02:52:49.728Z,82.13
2022-12-11T02:55:16.990Z,81.77
2022-12-11T02:57:56.976Z,81.77
2022-12-11T03:00:23.400Z,81.98
2022-12-11T03:02:50.045Z,81.64
2022-12-11T03:05:16.619Z,81.55
2022-12-11T03:07:44.941Z,81.65
2022-12-11T03:10:15.292Z,81.16
2022-12-11T03:12:45.439Z,81.34
2022-12-11T03:15:16.901Z,81.16
2022-12-11T03:17:56.684Z,81.48
2022-12-11T03:20:44.263Z,81.59
2022-12-11T03:23:29.589Z,81.23
2022-12-11T03:26:01.178Z,81.31
2022-12-11T03:28:47.443Z,81.30
2022-12-11T03:31:42.010Z,81.17
2022-12-11T03:34:35.008Z,81.28
2022-12-11T03:37:05.288Z,80.83
2022-12-11T03:39:39.972Z,81.08
2022-12-11T03:42:11.715Z,80.95
2022-12-11T03:44:38.451Z,81.00
2022-12-11T03:47:08.279Z,80.92
2022-12-11T03:49:39.550Z,80.94
2022-12-11T03:52:08.267Z,80.94
2022-12-11T03:54:35.295Z,80.67
2022-12-11T03:57:05.536Z,80.86
2022-12-11T03:59:31.953Z,80.99
2022-12-11T04:01:58.563Z,80.87
2022-12-11T04:04:25.127Z,80.73
2022-12-11T04:06:51.557Z,80.72
2022-12-11T04:09:17.899Z,80.97
2022-12-11T04:11:44.362Z,80.33
2022-12-11T04:14:32.121Z,80.59
2022-12-11T04:16:59.947Z,80.30
2022-12-11T04:19:45.148Z,80.66
2022-12-11T04:22:31.548Z,80.60
2022-12-11T04:24:58.075Z,80.34
2022-12-11T04:27:43.002Z,80.47
2022-12-11T04:30:13.942Z,80.46
2022-12-11T04:32:40.752Z,80.09
2022-12-11T04:35:09.138Z,80.35
2022-12-11T04:37:36.850Z,80.21
2022-12-11T04:40:05.932Z,80.09
2022-12-11T04:42:32.429Z,80.42
2022-12-11T04:44:58.884Z,79.90
2022-12-11T04:47:25.357Z,80.18
2022-12-11T04:49:51.736Z,79.74
2022-12-11T04:52:18.248Z,80.11
2022-12-11T04:54:44.673Z,80.28
2022-12-11T04:57:11.084Z,79.77
2022-12-11T04:59:37.548Z,80.13
2022-12-11T05:02:04.613Z,79.75
2022-12-11T05:04:33.101Z,79.66
2022-12-11T05:06:59.861Z,79.98
2022-12-11T05:09:27.142Z,79.67
2022-12-11T05:11:53.935Z,79.89
2022-12-11T05:14:20.832Z,79.57
2022-12-11T05:16:47.607Z,79.59
2022-12-11T05:19:14.326Z,79.58
2022-12-11T05:21:40.692Z,79.61
2022-12-11T05:24:07.380Z,80.03
2022-12-11T05:26:33.755Z,80.08
2022-12-11T05:29:00.148Z,79.63
2022-12-11T05:31:27.528Z,79.69
2022-12-11T05:33:54.520Z,79.76
2022-12-11T05:36:26.649Z,79.79
2022-12-11T05:38:53.698Z,80.33
2022-12-11T05:41:22.263Z,80.13
2022-12-11T05:43:48.733Z,79.85
2022-12-11T05:46:20.032Z,80.22
2022-12-11T05:48:48.946Z,79.86
2022-12-11T05:51:16.529Z,80.19
2022-12-11T05:53:44.526Z,80.11
2022-12-11T05:56:13.881Z,80.08
2022-12-11T05:58:41.057Z,79.96
2022-12-11T06:01:10.450Z,80.10
2022-12-11T06:03:37.611Z,79.75
2022-12-11T06:06:05.695Z,79.75
2022-12-11T06:08:32.611Z,79.60
2022-12-11T06:10:59.667Z,79.97
2022-12-11T06:13:26.659Z,79.77
2022-12-11T06:15:53.307Z,79.63
2022-12-11T06:18:19.775Z,79.61
2022-12-11T06:20:46.136Z,79.74
2022-12-11T06:23:12.929Z,79.88
2022-12-11T06:25:40.286Z,79.56
2022-12-11T06:28:07.119Z,79.74
2022-12-11T06:30:37.587Z,79.68
2022-12-11T06:33:06.315Z,79.75
2022-12-11T06:35:36.147Z,79.55
2022-12-11T06:38:06.640Z,79.48
2022-12-11T06:40:33.102Z,80.04
2022-12-11T06:42:59.499Z,79.42
2022-12-11T06:45:25.958Z,79.76
2022-12-11T06:47:52.378Z,79.69
2022-12-11T06:50:18.841Z,79.68
2022-12-11T06:52:45.300Z,79.50
2022-12-11T06:55:11.992Z,79.38
2022-12-11T06:57:38.490Z,79.47
2022-12-11T07:00:05.530Z,79.58
2022-12-11T07:02:32.248Z,79.25
2022-12-11T07:04:58.661Z,79.69
2022-12-11T07:07:25.119Z,79.63
2022-12-11T07:09:51.822Z,79.43
2022-12-11T07:12:18.213Z,79.76
2022-12-11T07:14:44.660Z,79.68
2022-12-11T07:17:11.069Z,79.39
2022-12-11T07:19:37.472Z,79.35
2022-12-11T07:22:03.866Z,79.21
2022-12-11T07:24:30.277Z,79.62
2022-12-11T07:26:56.696Z,79.18
2022-12-11T07:29:23.554Z,79.46
2022-12-11T07:31:50.391Z,79.20
2022-12-11T07:34:16.926Z,79.39
2022-12-11T07:36:43.487Z,78.91
2022-12-11T07:39:12.164Z,78.88
2022-12-11T07:41:39.061Z,78.71
2022-12-11T07:44:10.459Z,79.17
2022-12-11T07:46:37.608Z,78.71
2022-12-11T07:49:05.856Z,78.74
2022-12-11T07:51:35.537Z,78.74
2022-12-11T07:54:05.402Z,78.82
2022-12-11T07:56:32.565Z,78.16
2022-12-11T07:59:03.746Z,78.38
2022-12-11T08:01:32.129Z,78.77
2022-12-11T08:03:58.589Z,78.26
2022-12-11T08:06:32.835Z,78.02
2022-12-11T08:09:01.326Z,78.13
2022-12-11T08:11:27.959Z,77.86
2022-12-11T08:13:55.445Z,78.13
2022-12-11T08:16:22.200Z,78.10
2022-12-11T08:18:50.228Z,77.96
2022-12-11T08:21:25.180Z,77.99
2022-12-11T08:23:52.988Z,78.10
2022-12-11T08:26:25.567Z,78.19
2022-12-11T08:28:52.005Z,78.18
2022-12-11T08:31:19.657Z,78.14
2022-12-11T08:33:47.023Z,78.14
2022-12-11T08:36:16.106Z,77.93
2022-12-11T08:38:42.751Z,78.14
2022-12-11T08:41:16.179Z,77.93
2022-12-11T08:43:43.358Z,78.05
2022-12-11T08:46:12.454Z,77.98
2022-12-11T08:48:40.288Z,77.97
2022-12-11T08:51:10.359Z,77.72
2022-12-11T08:53:36.863Z,77.81
2022-12-11T08:56:09.360Z,77.67
2022-12-11T08:58:36.536Z,77.63
2022-12-11T09:01:08.863Z,77.38
2022-12-11T09:03:36.276Z,77.39
2022-12-11T09:06:07.576Z,77.44
2022-12-11T09:08:34.680Z,77.29
2022-12-11T09:11:13.907Z,77.12
2022-12-11T09:13:41.151Z,77.18
2022-12-11T09:16:11.225Z,77.17
2022-12-11T09:18:38.412Z,77.19
2022-12-11T09:21:08.129Z,77.06
2022-12-11T09:23:34.570Z,76.99
2022-12-11T09:26:05.971Z,76.96
2022-12-11T09:28:33.191Z,77.01
2022-12-11T09:31:00.009Z,76.79
2022-12-11T09:33:26.434Z,76.74
2022-12-11T09:36:00.571Z,76.90
2022-12-11T09:38:27.330Z,76.17
2022-12-11T09:40:54.147Z,76.29
2022-12-11T09:43:43.920Z,76.05
2022-12-11T09:46:13.514Z,76.08
2022-12-11T09:48:43.437Z,76.08
2022-12-11T09:51:28.049Z,75.98
2022-12-11T09:53:59.707Z,76.25
2022-12-11T09:56:49.338Z,75.83
2022-12-11T09:59:38.617Z,75.66
2022-12-11T10:02:19.706Z,75.56
2022-12-11T10:05:17.084Z,75.33
2022-12-11T10:07:52.615Z,74.83
2022-12-11T10:11:03.937Z,74.87
2022-12-11T10:13:59.172Z,74.44
2022-12-11T10:17:09.278Z,74.36
2022-12-11T10:19:36.264Z,74.08
2022-12-11T10:22:03.616Z,74.28
2022-12-11T10:25:09.893Z,74.04
2022-12-11T10:27:33.712Z,74.38
2022-12-11T10:30:12.732Z,74.30
2022-12-11T10:32:44.977Z,74.50
2022-12-11T10:35:20.264Z,74.38
2022-12-11T10:37:46.731Z,75.10
2022-12-11T10:40:13.828Z,74.39
2022-12-11T10:42:45.520Z,74.88
2022-12-11T10:45:16.099Z,74.89
2022-12-11T10:47:42.457Z,74.93
2022-12-11T10:50:23.536Z,75.18
2022-12-11T10:52:51.505Z,75.25
2022-12-11T10:55:30.708Z,75.45
2022-12-11T10:58:00.965Z,75.11
2022-12-11T11:00:35.455Z,74.93
2022-12-11T11:03:03.397Z,75.19
2022-12-11T11:05:35.893Z,75.26
2022-12-11T11:08:22.402Z,75.05
2022-12-11T11:10:53.009Z,75.09
2022-12-11T11:13:23.343Z,75.30
2022-12-11T11:15:59.504Z,75.27
2022-12-11T11:18:27.987Z,75.31
2022-12-11T11:20:55.477Z,75.18
2022-12-11T11:23:23.804Z,75.09
2022-12-11T11:25:54.072Z,75.54
2022-12-11T11:28:26.015Z,75.13
2022-12-11T11:31:12.887Z,81.27
2022-12-11T11:33:52.320Z,77.10
2022-12-11T11:36:24.560Z,75.70
2022-12-11T11:39:05.698Z,75.61
2022-12-11T11:41:41.507Z,75.46
2022-12-11T11:44:13.922Z,75.39
2022-12-11T11:46:50.229Z,75.27
2022-12-11T11:49:31.136Z,75.32
2022-12-11T11:52:21.739Z,75.46
2022-12-11T11:55:20.274Z,75.43
2022-12-11T11:57:57.114Z,75.49
2022-12-11T12:00:31.746Z,75.57
2022-12-11T12:03:03.367Z,75.59
2022-12-11T12:06:15.260Z,75.78
2022-12-11T12:09:03.658Z,75.58
2022-12-11T12:11:45.419Z,75.66
2022-12-11T12:14:54.522Z,75.81
2022-12-11T12:17:31.440Z,75.65
2022-12-11T12:20:22.644Z,75.97
2022-12-11T12:23:04.120Z,75.75
2022-12-11T12:25:50.321Z,75.51
2022-12-11T12:29:01.852Z,75.89
2022-12-11T12:31:53.837Z,76.01
2022-12-11T12:34:47.416Z,76.59
2022-12-11T12:37:32.079Z,76.00
2022-12-11T12:40:24.641Z,75.73
2022-12-11T12:43:06.663Z,75.57
2022-12-11T12:45:48.140Z,75.65
2022-12-11T12:48:14.705Z,76.08
2022-12-11T12:50:45.368Z,75.84
2022-12-11T12:53:23.640Z,75.60
2022-12-11T12:55:51.685Z,75.51
2022-12-11T12:58:35.936Z,75.72
2022-12-11T13:01:21.562Z,75.57
2022-12-11T13:03:57.666Z,75.70
2022-12-11T13:06:43.981Z,75.63
2022-12-11T13:09:17.709Z,75.61
2022-12-11T13:11:46.364Z,75.53
2022-12-11T13:14:15.424Z,75.45
2022-12-11T13:16:44.541Z,75.29
2022-12-11T13:19:23.192Z,74.80
2022-12-11T13:21:58.181Z,74.64
2022-12-11T13:24:27.147Z,74.51
2022-12-11T13:26:53.681Z,74.51
2022-12-11T13:29:39.632Z,74.12
2022-12-11T13:32:08.780Z,73.58
2022-12-11T13:34:38.925Z,73.29
2022-12-11T13:37:07.531Z,72.75
2022-12-11T13:39:37.664Z,72.28
2022-12-11T13:42:25.589Z,72.23
2022-12-11T13:44:52.253Z,72.14
2022-12-11T13:47:20.139Z,72.07
2022-12-11T13:49:53.267Z,71.95
2022-12-11T13:52:22.973Z,71.82
2022-12-11T13:54:52.352Z,72.60
2022-12-11T13:57:22.134Z,72.85
2022-12-11T13:59:57.242Z,73.26
2022-12-11T14:02:34.167Z,73.67
2022-12-11T14:05:04.990Z,73.79
2022-12-11T14:07:35.806Z,73.71
2022-12-11T14:10:09.062Z,73.82
2022-12-11T14:12:36.368Z,74.47
2022-12-11T14:15:04.762Z,74.06
2022-12-11T14:17:34.041Z,76.70
2022-12-11T14:20:03.644Z,75.43
2022-12-11T14:22:30.475Z,74.79
2022-12-11T14:24:59.267Z,74.53
2022-12-11T14:27:27.463Z,74.54
2022-12-11T14:29:54.472Z,74.61
2022-12-11T14:32:44.717Z,74.87
2022-12-11T14:35:24.252Z,74.81
2022-12-11T14:37:52.273Z,75.12
2022-12-11T14:40:24.385Z,74.30
2022-12-11T14:43:00.015Z,74.81
2022-12-11T14:45:34.658Z,75.28
2022-12-11T14:48:09.683Z,75.24
2022-12-11T14:50:59.662Z,75.21
2022-12-11T14:53:34.711Z,75.49
2022-12-11T14:56:07.237Z,75.13
2022-12-11T14:58:41.353Z,75.21
2022-12-11T15:01:22.250Z,75.22
2022-12-11T15:03:48.775Z,75.07
2022-12-11T15:06:28.985Z,75.14
2022-12-11T15:08:55.957Z,74.76
2022-12-11T15:11:24.870Z,75.13
2022-12-11T15:13:58.879Z,75.18
2022-12-11T15:16:28.970Z,75.61
2022-12-11T15:18:56.244Z,75.47
2022-12-11T15:21:35.038Z,75.41
2022-12-11T15:24:04.937Z,75.44
2022-12-11T15:26:38.665Z,75.84
2022-12-11T15:29:30.441Z,75.58
2022-12-11T15:32:09.152Z,75.82
2022-12-11T15:34:48.183Z,75.85
2022-12-11T15:37:33.296Z,75.81
2022-12-11T15:40:01.605Z,75.73
2022-12-11T15:42:35.201Z,75.68
2022-12-11T15:45:02.842Z,75.85
2022-12-11T15:47:30.956Z,75.66
2022-12-11T15:50:07.235Z,75.73
2022-12-11T15:52:34.494Z,75.82
2022-12-11T15:55:00.900Z,75.79
2022-12-11T15:57:27.318Z,75.72
2022-12-11T15:59:55.187Z,75.75
2022-12-11T16:02:22.140Z,75.62
2022-12-11T16:04:48.578Z,75.89
2022-12-11T16:07:21.079Z,75.74
2022-12-11T16:09:47.520Z,75.70
2022-12-11T16:12:14.468Z,75.86
2022-12-11T16:14:42.474Z,75.86
2022-12-11T16:17:09.743Z,75.94
2022-12-11T16:19:37.128Z,75.88
2022-12-11T16:22:04.400Z,76.17
2022-12-11T16:24:31.440Z,76.04
2022-12-11T16:26:58.045Z,76.12
2022-12-11T16:29:24.625Z,76.12
2022-12-11T16:31:51.111Z,76.17
2022-12-11T16:34:17.701Z,76.76
2022-12-11T16:36:44.809Z,75.91
2022-12-11T16:39:12.281Z,76.11
2022-12-11T16:41:38.764Z,75.93
2022-12-11T16:44:06.537Z,75.78
2022-12-11T16:46:33.089Z,76.04
2022-12-11T16:48:59.473Z,76.06
2022-12-11T16:51:25.883Z,75.78
2022-12-11T16:53:52.274Z,75.93
2022-12-11T16:56:18.731Z,75.91
2022-12-11T16:58:45.151Z,75.93
2022-12-11T17:01:12.892Z,75.93
2022-12-11T17:03:39.689Z,75.58
2022-12-11T17:06:07.749Z,75.75
2022-12-11T17:08:34.107Z,75.71
2022-12-11T17:11:00.573Z,75.65
2022-12-11T17:13:29.585Z,75.14
2022-12-11T17:16:05.241Z,75.24
2022-12-11T17:18:31.611Z,74.84
2022-12-11T17:20:58.056Z,75.24
2022-12-11T17:23:26.053Z,74.87
2022-12-11T17:25:52.521Z,75.06
2022-12-11T17:28:18.914Z,74.73
2022-12-11T17:30:45.676Z,74.51
2022-12-11T17:33:12.245Z,75.02
2022-12-11T17:35:39.505Z,75.00
2022-12-11T17:38:05.943Z,74.88
2022-12-11T17:40:32.400Z,74.49
2022-12-11T17:42:59.047Z,74.91
2022-12-11T17:45:25.492Z,74.86
2022-12-11T17:47:51.918Z,74.55
2022-12-11T17:50:18.305Z,74.83
2022-12-11T17:52:44.700Z,74.59
2022-12-11T17:55:11.462Z,73.87
2022-12-11T17:57:38.191Z,73.97
2022-12-11T18:00:05.508Z,74.24
2022-12-11T18:02:38.919Z,74.25
2022-12-11T18:05:05.484Z,73.99
2022-12-11T18:07:31.942Z,73.79
2022-12-11T18:09:58.378Z,73.77
2022-12-11T18:12:24.801Z,73.43
2022-12-11T18:14:51.224Z,73.46
2022-12-11T18:17:17.636Z,73.41
2022-12-11T18:19:46.174Z,73.35
2022-12-11T18:22:12.773Z,73.70
2022-12-11T18:24:39.207Z,73.03
2022-12-11T18:27:10.141Z,73.09
2022-12-11T18:29:36.971Z,73.01
2022-12-11T18:32:03.624Z,72.84
2022-12-11T18:34:30.248Z,73.32
2022-12-11T18:36:56.899Z,72.93
2022-12-11T18:39:23.315Z,72.80
2022-12-11T18:42:03.512Z,73.36
2022-12-11T18:44:36.151Z,73.22
2022-12-11T18:47:02.562Z,72.81
2022-12-11T18:49:29.259Z,72.18
2022-12-11T18:51:55.685Z,72.66
2022-12-11T18:54:22.082Z,72.17
2022-12-11T18:56:48.525Z,72.23
2022-12-11T18:59:14.940Z,72.13
2022-12-11T19:01:41.901Z,71.97
2022-12-11T19:04:10.953Z,71.81
2022-12-11T19:06:37.935Z,71.82
2022-12-11T19:09:06.485Z,71.51
2022-12-11T19:11:34.736Z,71.60
2022-12-11T19:14:01.474Z,71.21
2022-12-11T19:16:35.928Z,71.17
2022-12-11T19:19:11.663Z,70.78
2022-12-11T19:21:38.659Z,70.82
2022-12-11T19:24:11.265Z,70.63
2022-12-11T19:26:37.695Z,70.33
2022-12-11T19:29:04.226Z,70.24
2022-12-11T19:31:32.176Z,70.43
2022-12-11T19:33:58.953Z,70.35
2022-12-11T19:36:27.413Z,70.00
2022-12-11T19:38:59.421Z,70.03
2022-12-11T19:41:28.567Z,69.89
2022-12-11T19:43:56.279Z,69.41
2022-12-11T19:46:24.134Z,69.13
2022-12-11T19:48:53.692Z,69.27
2022-12-11T19:51:23.000Z,69.01
2022-12-11T19:53:50.363Z,68.83
2022-12-11T19:56:19.058Z,69.11
2022-12-11T19:58:46.214Z,68.86
2022-12-11T20:01:38.764Z,69.21
2022-12-11T20:04:10.157Z,68.84
2022-12-11T20:06:38.983Z,68.74
2022-12-11T20:09:07.461Z,68.58
2022-12-11T20:11:34.052Z,68.69
2022-12-11T20:14:00.652Z,68.17
2022-12-11T20:17:01.701Z,68.48
2022-12-11T20:19:14.466Z,68.85
2022-12-11T20:21:42.109Z,68.88
2022-12-11T20:24:09.255Z,68.66
2022-12-11T20:26:36.849Z,68.55
2022-12-11T20:29:07.325Z,68.46
2022-12-11T20:31:35.005Z,68.60
2022-12-11T20:34:01.866Z,68.66
2022-12-11T20:36:28.308Z,68.69
2022-12-11T20:38:54.771Z,69.32
2022-12-11T20:41:23.146Z,68.97
2022-12-11T20:43:49.977Z,69.09
2022-12-11T20:46:17.853Z,69.09
2022-12-11T20:48:44.820Z,69.10
2022-12-11T20:51:13.184Z,68.91
2022-12-11T20:53:40.099Z,69.06
2022-12-11T20:56:16.693Z,69.01
2022-12-11T20:58:43.859Z,69.12
2022-12-11T21:01:18.820Z,69.03
2022-12-11T21:03:46.440Z,69.24
2022-12-11T21:06:25.271Z,68.71
2022-12-11T21:08:53.012Z,69.20
2022-12-11T21:11:19.465Z,68.78
2022-12-11T21:13:50.388Z,68.66
2022-12-11T21:16:18.197Z,68.88
2022-12-11T21:18:46.327Z,68.59
2022-12-11T21:21:12.947Z,68.49
2022-12-11T21:23:39.489Z,68.18
2022-12-11T21:26:06.178Z,68.57
2022-12-11T21:28:35.503Z,68.59
2022-12-11T21:31:04.287Z,68.79
2022-12-11T21:33:30.908Z,68.99
2022-12-11T21:35:58.999Z,68.83
2022-12-11T21:38:25.849Z,68.57
2022-12-11T21:40:53.222Z,68.89
2022-12-11T21:43:20.126Z,68.78
2022-12-11T21:46:02.474Z,68.66
2022-12-11T21:48:29.155Z,68.45
2022-12-11T21:50:56.049Z,68.58
2022-12-11T21:53:22.847Z,68.45
2022-12-11T21:55:49.282Z,68.86
2022-12-11T21:58:15.639Z,68.54
2022-12-11T22:00:42.194Z,68.16
2022-12-11T22:03:08.635Z,68.55
2022-12-11T22:05:35.176Z,68.54
2022-12-11T22:08:01.778Z,68.09
2022-12-11T22:10:29.146Z,67.81
2022-12-11T22:12:55.647Z,68.00
2022-12-11T22:15:22.244Z,67.69
2022-12-11T22:17:48.774Z,67.54
2022-12-11T22:20:15.311Z,67.80
2022-12-11T22:22:41.733Z,67.60
2022-12-11T22:25:08.480Z,67.61
2022-12-11T22:27:35.235Z,67.81
2022-12-11T22:30:01.716Z,67.64
2022-12-11T22:32:28.244Z,67.39
2022-12-11T22:34:56.276Z,67.88
2022-12-11T22:37:22.860Z,67.52
2022-12-11T22:39:49.581Z,67.97
2022-12-11T22:42:16.809Z,67.80
2022-12-11T22:44:43.200Z,67.97
2022-12-11T22:47:09.547Z,67.99
2022-12-11T22:49:36.164Z,67.79
2022-12-11T22:52:02.856Z,67.52
2022-12-11T22:54:29.331Z,67.91
2022-12-11T22:56:55.709Z,67.56
2022-12-11T22:59:22.546Z,68.00
2022-12-11T23:01:49.321Z,67.97
2022-12-11T23:04:15.696Z,67.61
2022-12-11T23:06:42.264Z,68.28
2022-12-11T23:09:08.719Z,68.22
2022-12-11T23:11:38.075Z,68.53
2022-12-11T23:14:06.639Z,68.79
2022-12-11T23:16:33.798Z,69.05
2022-12-11T23:19:00.872Z,68.80
2022-12-11T23:21:28.299Z,68.97
2022-12-11T23:23:55.611Z,69.50
2022-12-11T23:26:22.234Z,69.36
2022-12-11T23:28:49.324Z,69.46
2022-12-11T23:31:16.558Z,69.70
2022-12-11T23:33:42.990Z,69.51
2022-12-11T23:36:10.058Z,70.14
2022-12-11T23:38:36.613Z,70.43
2022-12-11T23:41:06.032Z,70.56
2022-12-11T23:43:34.773Z,70.16
2022-12-11T23:46:01.370Z,70.39
2022-12-11T23:48:27.796Z,70.36
2022-12-11T23:50:59.744Z,70.91
2022-12-11T23:53:26.789Z,70.79
2022-12-11T23:55:53.410Z,70.81
2022-12-11T23:58:20.580Z,70.49
